Virginia Beach, VA

4:25 AM EDT on September 22, 2014 (GMT -0400)
Redwood Farm | Change Station
CLOSE
Current Station
Personal Weather Station
Location: Virginia Beach, VA
Elevation: 13 ft
Nearby Weather Stations

Elev 13 ft 36.87 °N, 76.10 °W | Updated 9 seconds ago

Overcast
Overcast
73.4 °F
Feels Like 74 °F
N
-
Wind Variable Wind from North

Today
High -- | Low -- °F
--% Chance of Precip.
Yesterday
High -- | Low -- °F
Precip. -- in
6:52 AM 7:01 PM
Waning Crescent, 3% visible
Pressure 29.82 in
Visibility 10.0 miles
Clouds Mostly Cloudy 10000 ft
Mostly Cloudy 13000 ft
Heat Index 74 °F
Dew Point 67 °F
Humidity 80%
Rainfall -999.00 in
Snow Depth Not available.
UV 0 out of 12
Pollen 4.30 out of 12
Ozone Good
PM2.5 Good
Flu Activity Not available.
METAR KNTU 220756Z 26007KT 10SM BKN100 BKN130 23/18 A2981 RMK AO2 SLP097 T02280183

More Conditions Fewer Conditions

Pressure 29.82 in
Visibility 10.0 miles
Clouds Mostly Cloudy 10000 ft
Mostly Cloudy 13000 ft
Heat Index 74 °F
Dew Point 67 °F
Humidity 80%
Rainfall -999.00 in
Snow Depth Not available.
UV 0 out of 12
Pollen 4.30 out of 12
Ozone Good
PM2.5 Good
Flu Activity Not available.
METAR KNTU 220756Z 26007KT 10SM BKN100 BKN130 23/18 A2981 RMK AO2 SLP097 T02280183

More Conditions Fewer Conditions

10-Day Weather Forecast

Almanac

Astronomy

Sep. 22, 2014 Rise Set
Actual Time 6:52 AM EDT 7:01 PM EDT
Civil Twilight 6:26 AM EDT 7:27 PM EDT
Nautical Twilight 5:56 AM EDT 7:57 PM EDT
Astronomical Twilight 5:25 AM EDT 8:27 PM EDT
Moon 5:20 AM EDT 6:06 PM EDT
Length of Visible Light 13h 00m
Length of Day
12h 09m
Tomorrow will be 2m 19s shorter.
Waning Crescent, 3% of the Moon is Illuminated
Today
Waning Crescent
Sep 24
New
Oct 1
First Quarter
Oct 8
Full
Oct 15
Last Quarter

Today's Extremes

State Highs State Lows

Community

WunderPhotos

Upload Photos

1,755,395 photos uploaded!

Nearby

Air Quality

  Air Quality AQ Index Pollutant
Yesterday Good
OZONE
Yesterday Good
PM2.5
Current Good
PM2.5
Current Good
OZONE
Monday Good
PM2.5

Snow Depth

Station Depth Elevation
No new snow has been reported.

Earthquake Activity

City Distance Mag. Time & Date
No recent earthquake activity has been reported nearby.
Minimum magnitude displayed is 2.5.

Coastal Water Temperatures

Place Temperature
Chesapeake Bay Bridge Tunnel, VA 75.0 °F
Kiptopeke, VA 78.1 °F
Money Point, VA 78.1 °F
Sewells Point, VA 75.0 °F

Nearby Weather Stations